createdAt,value
2023-10-25T00:01:57.464Z,33.17
2023-10-25T00:04:25.878Z,30.13
2023-10-25T00:06:53.683Z,31.23
2023-10-25T00:09:21.808Z,28.10
2023-10-25T00:11:49.410Z,29.83
2023-10-25T00:14:17.232Z,28.95
2023-10-25T00:16:44.924Z,28.33
2023-10-25T00:19:13.175Z,31.27
2023-10-25T00:21:40.817Z,30.00
2023-10-25T00:24:09.096Z,27.45
2023-10-25T00:26:36.828Z,34.63
2023-10-25T00:29:05.036Z,32.78
2023-10-25T00:31:32.706Z,30.70
2023-10-25T00:34:00.656Z,31.00
2023-10-25T00:36:30.245Z,31.02
2023-10-25T00:38:58.085Z,27.52
2023-10-25T00:41:25.665Z,33.22
2023-10-25T00:43:53.517Z,29.17
2023-10-25T00:46:25.241Z,30.80
2023-10-25T00:48:56.570Z,30.33
2023-10-25T00:51:24.705Z,33.30
2023-10-25T00:53:54.057Z,28.95
2023-10-25T00:56:22.948Z,32.45
2023-10-25T00:58:51.558Z,28.23
2023-10-25T01:01:20.625Z,30.42
2023-10-25T01:03:48.698Z,32.58
2023-10-25T01:06:17.188Z,29.25
2023-10-25T01:08:45.371Z,31.40
2023-10-25T01:11:13.326Z,29.45
2023-10-25T01:13:41.984Z,31.90
2023-10-25T01:16:09.888Z,28.10
2023-10-25T01:18:38.296Z,34.60
2023-10-25T01:21:06.877Z,36.30
2023-10-25T01:23:34.838Z,29.35
2023-10-25T01:26:02.461Z,35.03
2023-10-25T01:28:30.277Z,31.45
2023-10-25T01:30:57.913Z,31.02
2023-10-25T01:33:25.759Z,31.25
2023-10-25T01:35:53.451Z,31.33
2023-10-25T01:38:21.341Z,32.25
2023-10-25T01:40:48.892Z,33.22
2023-10-25T01:43:16.883Z,32.88
2023-10-25T01:45:44.551Z,41.22
2023-10-25T01:48:12.841Z,30.85
2023-10-25T01:50:40.428Z,32.20
2023-10-25T01:53:08.633Z,30.08
2023-10-25T01:55:41.229Z,30.88
2023-10-25T01:58:09.634Z,32.70
2023-10-25T02:00:39.950Z,33.67
2023-10-25T02:03:08.254Z,38.50
2023-10-25T02:05:36.459Z,33.13
2023-10-25T02:08:04.369Z,35.58
2023-10-25T02:10:31.978Z,36.95
2023-10-25T02:12:59.898Z,31.73
2023-10-25T02:15:27.820Z,36.00
2023-10-25T02:17:56.099Z,36.95
2023-10-25T02:20:24.408Z,36.05
2023-10-25T02:22:52.201Z,35.13
2023-10-25T02:25:19.855Z,38.17
2023-10-25T02:27:47.872Z,38.80
2023-10-25T02:30:15.447Z,36.30
2023-10-25T02:32:43.310Z,38.20
2023-10-25T02:35:10.900Z,36.15
2023-10-25T02:37:38.726Z,35.30
2023-10-25T02:40:07.037Z,39.83
2023-10-25T02:42:36.479Z,34.15
2023-10-25T02:45:04.366Z,35.20
2023-10-25T02:47:32.572Z,36.83
2023-10-25T02:50:00.207Z,33.17
2023-10-25T02:52:28.055Z,34.70
2023-10-25T02:54:56.619Z,37.60
2023-10-25T02:57:24.636Z,34.83
2023-10-25T02:59:52.899Z,33.92
2023-10-25T03:02:21.302Z,38.90
2023-10-25T03:04:49.683Z,36.83
2023-10-25T03:07:17.581Z,36.92
2023-10-25T03:09:45.416Z,36.63
2023-10-25T03:12:13.484Z,35.53
2023-10-25T03:14:41.382Z,37.38
2023-10-25T03:17:09.186Z,42.88
2023-10-25T03:19:36.804Z,38.28
2023-10-25T03:22:07.791Z,37.88
2023-10-25T03:24:35.491Z,34.85
2023-10-25T03:27:03.331Z,37.17
2023-10-25T03:29:31.021Z,36.78
2023-10-25T03:31:59.665Z,38.28
2023-10-25T03:34:27.257Z,41.55
2023-10-25T03:36:55.419Z,37.85
2023-10-25T03:39:23.210Z,37.08
2023-10-25T03:41:51.050Z,37.20
2023-10-25T03:44:18.693Z,40.70
2023-10-25T03:46:46.692Z,39.05
2023-10-25T03:49:14.371Z,36.20
2023-10-25T03:51:42.209Z,37.28
2023-10-25T03:54:09.822Z,39.88
2023-10-25T03:56:37.770Z,35.70
2023-10-25T03:59:05.314Z,36.92
2023-10-25T04:01:33.206Z,41.97
2023-10-25T04:04:00.948Z,36.92
2023-10-25T04:06:28.928Z,37.65
2023-10-25T04:08:56.485Z,35.55
2023-10-25T04:11:24.399Z,35.38
2023-10-25T04:13:52.049Z,39.47
2023-10-25T04:16:19.952Z,37.30
2023-10-25T04:18:47.550Z,41.30
2023-10-25T04:21:15.795Z,33.97
2023-10-25T04:23:43.545Z,34.58
2023-10-25T04:26:12.214Z,35.10
2023-10-25T04:28:40.896Z,33.15
2023-10-25T04:31:09.230Z,36.70
2023-10-25T04:33:38.166Z,38.53
2023-10-25T04:36:06.664Z,34.83
2023-10-25T04:38:34.379Z,37.67
2023-10-25T04:41:02.785Z,37.67
2023-10-25T04:43:31.770Z,34.30
2023-10-25T04:46:00.317Z,39.58
2023-10-25T04:48:27.930Z,33.47
2023-10-25T04:50:55.816Z,36.55
2023-10-25T04:53:23.339Z,38.95
2023-10-25T04:55:51.197Z,32.55
2023-10-25T04:58:20.343Z,38.10
2023-10-25T05:00:48.666Z,36.10
2023-10-25T05:03:16.389Z,36.35
2023-10-25T05:05:44.511Z,40.25
2023-10-25T05:08:12.511Z,36.42
2023-10-25T05:10:40.655Z,36.58
2023-10-25T05:13:08.518Z,37.50
2023-10-25T05:15:37.353Z,35.92
2023-10-25T05:18:05.246Z,36.72
2023-10-25T05:20:33.407Z,36.88
2023-10-25T05:23:04.764Z,39.60
2023-10-25T05:25:32.966Z,37.92
2023-10-25T05:28:02.494Z,39.47
2023-10-25T05:30:30.632Z,36.03
2023-10-25T05:33:02.596Z,35.90
2023-10-25T05:35:30.790Z,34.03
2023-10-25T05:37:58.807Z,36.67
2023-10-25T05:40:26.783Z,46.45
2023-10-25T05:42:56.481Z,83.03
2023-10-25T05:45:24.391Z,90.45
2023-10-25T05:47:52.203Z,97.20
2023-10-25T05:50:20.422Z,75.78
2023-10-25T05:52:48.098Z,63.15
2023-10-25T05:55:16.998Z,47.83
2023-10-25T05:57:47.202Z,46.25
2023-10-25T06:00:15.512Z,46.38
2023-10-25T06:02:44.601Z,35.15
2023-10-25T06:05:14.317Z,34.47
2023-10-25T06:07:42.640Z,37.55
2023-10-25T06:10:10.967Z,34.35
2023-10-25T06:12:40.875Z,30.20
2023-10-25T06:15:09.285Z,30.35
2023-10-25T06:17:36.981Z,32.80
2023-10-25T06:20:05.776Z,29.02
2023-10-25T06:22:33.414Z,31.08
2023-10-25T06:25:01.438Z,26.75
2023-10-25T06:27:29.635Z,26.73
2023-10-25T06:29:57.826Z,27.65
2023-10-25T06:32:25.607Z,30.20
2023-10-25T06:34:53.482Z,28.02
2023-10-25T06:37:21.188Z,27.27
2023-10-25T06:39:49.137Z,25.63
2023-10-25T06:42:16.936Z,29.45
2023-10-25T06:44:45.279Z,21.88
2023-10-25T06:47:13.112Z,23.10
2023-10-25T06:49:41.142Z,24.65
2023-10-25T06:52:09.020Z,21.63
2023-10-25T06:54:37.043Z,21.55
2023-10-25T06:57:04.969Z,20.27
2023-10-25T06:59:33.070Z,21.95
2023-10-25T07:02:17.584Z,22.48
2023-10-25T07:04:49.001Z,20.23
2023-10-25T07:07:20.385Z,19.67
2023-10-25T07:09:48.498Z,22.27
2023-10-25T07:12:16.146Z,20.55
2023-10-25T07:14:44.575Z,21.10
2023-10-25T07:17:12.274Z,22.63
2023-10-25T07:19:43.173Z,21.98
2023-10-25T07:22:11.050Z,22.17
2023-10-25T07:24:38.886Z,18.65
2023-10-25T07:27:06.543Z,16.98
2023-10-25T07:29:37.881Z,18.13
2023-10-25T07:32:05.843Z,18.77
2023-10-25T07:34:33.705Z,19.05
2023-10-25T07:37:01.398Z,18.95
2023-10-25T07:39:29.433Z,15.82
2023-10-25T07:41:57.085Z,14.13
2023-10-25T07:44:24.924Z,16.38
2023-10-25T07:46:52.563Z,14.95
2023-10-25T07:49:20.588Z,17.77
2023-10-25T07:51:48.230Z,14.98
2023-10-25T07:54:16.232Z,14.82
2023-10-25T07:59:15.639Z,15.57
2023-10-25T08:01:44.267Z,13.57
2023-10-25T08:04:12.836Z,15.15
2023-10-25T08:06:40.554Z,14.50
2023-10-25T08:09:08.517Z,13.75
2023-10-25T08:11:38.005Z,12.82
2023-10-25T08:14:06.116Z,13.63
2023-10-25T08:16:34.379Z,13.68
2023-10-25T08:19:02.340Z,17.10
2023-10-25T08:21:29.933Z,16.40
2023-10-25T08:23:58.013Z,13.90
2023-10-25T08:26:28.499Z,12.85
2023-10-25T08:28:56.593Z,14.35
2023-10-25T08:31:24.722Z,11.75
2023-10-25T08:33:52.609Z,12.20
2023-10-25T08:36:20.237Z,10.70
2023-10-25T08:38:48.165Z,13.88
2023-10-25T08:41:17.755Z,12.95
2023-10-25T08:43:45.810Z,12.57
2023-10-25T08:46:15.214Z,10.80
2023-10-25T08:48:43.918Z,12.80
2023-10-25T08:51:11.616Z,11.02
2023-10-25T08:53:40.016Z,10.60
2023-10-25T08:56:07.742Z,11.13
2023-10-25T08:58:35.714Z,9.93
2023-10-25T09:01:03.807Z,11.30
2023-10-25T09:03:35.001Z,9.57
2023-10-25T09:06:06.384Z,9.85
2023-10-25T09:08:35.133Z,9.10
2023-10-25T09:11:08.150Z,11.00
2023-10-25T09:13:37.334Z,13.07
2023-10-25T09:16:05.857Z,11.73
2023-10-25T09:18:34.587Z,10.07
2023-10-25T09:21:11.402Z,13.90
2023-10-25T09:23:40.616Z,12.25
2023-10-25T09:26:19.387Z,16.15
2023-10-25T09:28:47.601Z,11.65
2023-10-25T09:31:27.296Z,13.98
2023-10-25T09:33:58.189Z,17.98
2023-10-25T09:36:27.919Z,12.13
2023-10-25T09:38:57.721Z,9.40
2023-10-25T09:41:28.197Z,8.75
2023-10-25T09:43:59.793Z,9.25
2023-10-25T09:46:29.799Z,8.93
2023-10-25T09:49:01.355Z,8.32
2023-10-25T09:51:57.434Z,9.13
2023-10-25T09:54:30.896Z,8.10
2023-10-25T09:56:59.333Z,7.28
2023-10-25T09:59:32.588Z,7.68
2023-10-25T10:02:01.695Z,6.70
2023-10-25T10:04:30.029Z,7.20
2023-10-25T10:07:11.305Z,6.50
2023-10-25T10:09:42.154Z,7.20
2023-10-25T10:12:11.289Z,10.48
2023-10-25T10:14:41.193Z,9.05
2023-10-25T10:17:11.893Z,6.80
2023-10-25T10:19:40.752Z,7.60
2023-10-25T10:22:09.708Z,8.80
2023-10-25T10:24:44.900Z,7.50
2023-10-25T10:27:13.709Z,9.52
2023-10-25T10:29:42.399Z,10.63
2023-10-25T10:32:10.367Z,11.77
2023-10-25T10:34:43.255Z,8.68
2023-10-25T10:37:15.149Z,9.95
2023-10-25T10:40:00.986Z,9.38
2023-10-25T10:42:37.345Z,9.68
2023-10-25T10:45:06.437Z,9.85
2023-10-25T10:47:36.439Z,11.45
2023-10-25T10:50:14.004Z,7.30
2023-10-25T10:52:42.564Z,10.45
2023-10-25T10:55:11.550Z,11.75
2023-10-25T10:57:42.135Z,14.15
2023-10-25T11:00:20.398Z,15.18
2023-10-25T11:02:49.393Z,12.80
2023-10-25T11:05:21.147Z,12.27
2023-10-25T11:07:49.629Z,14.88
2023-10-25T11:10:17.794Z,11.82
2023-10-25T11:12:45.853Z,13.10
2023-10-25T11:15:14.193Z,10.98
2023-10-25T11:17:42.203Z,10.00
2023-10-25T11:20:10.309Z,9.77
2023-10-25T11:22:38.034Z,8.70
2023-10-25T11:25:10.977Z,9.68
2023-10-25T11:27:39.021Z,9.45
2023-10-25T11:30:07.523Z,14.63
2023-10-25T11:32:35.316Z,10.38
2023-10-25T11:35:03.802Z,10.75
2023-10-25T11:37:50.702Z,7.05
2023-10-25T11:40:18.611Z,7.78
2023-10-25T11:42:46.380Z,8.00
2023-10-25T11:45:16.952Z,8.05
2023-10-25T11:47:49.323Z,9.73
2023-10-25T11:50:17.459Z,7.28
2023-10-25T11:52:45.026Z,6.78
2023-10-25T11:55:12.993Z,7.13
2023-10-25T11:57:40.818Z,4.35
2023-10-25T12:00:10.382Z,6.47
2023-10-25T12:02:41.010Z,4.22
2023-10-25T12:05:09.186Z,4.07
2023-10-25T12:07:36.813Z,4.88
2023-10-25T12:10:07.951Z,4.25
2023-10-25T12:12:36.062Z,3.45
2023-10-25T12:15:04.186Z,6.32
2023-10-25T12:17:31.947Z,3.95
2023-10-25T12:20:07.638Z,3.42
2023-10-25T12:22:42.217Z,3.67
2023-10-25T12:25:10.210Z,5.03
2023-10-25T12:27:37.929Z,4.25
2023-10-25T12:30:06.238Z,6.47
2023-10-25T12:32:33.919Z,4.45
2023-10-25T12:35:01.880Z,5.88
2023-10-25T12:37:30.768Z,8.77
2023-10-25T12:39:58.786Z,5.45
2023-10-25T12:42:26.458Z,5.40
2023-10-25T12:44:55.237Z,6.05
2023-10-25T12:47:23.676Z,4.88
2023-10-25T12:49:51.829Z,4.22
2023-10-25T12:52:19.792Z,5.30
2023-10-25T12:54:47.679Z,4.15
2023-10-25T12:57:15.208Z,5.07
2023-10-25T12:59:43.055Z,3.30
2023-10-25T13:02:10.636Z,3.35
2023-10-25T13:04:38.537Z,2.50
2023-10-25T13:07:07.079Z,3.40
2023-10-25T13:09:35.020Z,4.60
2023-10-25T13:12:02.849Z,3.88
2023-10-25T13:14:30.700Z,3.58
2023-10-25T13:17:08.721Z,4.45
2023-10-25T13:19:44.688Z,5.60
2023-10-25T13:22:12.273Z,4.13
2023-10-25T13:24:40.181Z,4.57
2023-10-25T13:27:07.947Z,3.50
2023-10-25T13:29:35.913Z,4.07
2023-10-25T13:32:03.665Z,3.83
2023-10-25T13:34:31.476Z,5.57
2023-10-25T13:36:59.051Z,4.18
2023-10-25T13:39:27.250Z,5.90
2023-10-25T13:41:54.842Z,4.40
2023-10-25T13:44:22.708Z,4.88
2023-10-25T13:46:50.363Z,4.55
2023-10-25T13:49:18.216Z,3.95
2023-10-25T13:51:46.479Z,4.85
2023-10-25T13:54:14.383Z,5.03
2023-10-25T13:56:41.992Z,6.05
2023-10-25T13:59:09.896Z,5.03
2023-10-25T14:01:37.507Z,3.63
2023-10-25T14:04:05.557Z,5.53
2023-10-25T14:06:33.278Z,6.63
2023-10-25T14:09:01.121Z,5.18
2023-10-25T14:11:29.020Z,3.58
2023-10-25T14:13:57.008Z,3.67
2023-10-25T14:16:24.547Z,3.85
2023-10-25T14:18:52.877Z,5.20
2023-10-25T14:21:20.574Z,4.25
2023-10-25T14:23:49.777Z,4.70
2023-10-25T14:26:17.528Z,4.47
2023-10-25T14:28:45.612Z,4.95
2023-10-25T14:31:16.793Z,5.22
2023-10-25T14:33:44.985Z,6.63
2023-10-25T14:36:13.591Z,5.30
2023-10-25T14:38:46.119Z,7.38
2023-10-25T14:41:14.169Z,5.68
2023-10-25T14:43:42.152Z,8.70
2023-10-25T14:46:13.418Z,7.00
2023-10-25T14:48:41.537Z,6.50
2023-10-25T14:51:16.004Z,8.07
2023-10-25T14:53:43.948Z,7.50
2023-10-25T14:56:11.606Z,8.02
2023-10-25T14:58:39.777Z,9.45
2023-10-25T15:01:08.835Z,10.77
2023-10-25T15:03:37.081Z,10.82
2023-10-25T15:06:04.864Z,11.18
2023-10-25T15:08:32.937Z,7.97
2023-10-25T15:11:06.945Z,8.50
2023-10-25T15:13:35.131Z,8.77
2023-10-25T15:16:03.822Z,7.05
2023-10-25T15:18:32.847Z,5.82
2023-10-25T15:21:00.694Z,6.22
2023-10-25T15:23:28.603Z,8.48
2023-10-25T15:26:05.780Z,7.43
2023-10-25T15:28:33.677Z,7.18
2023-10-25T15:31:03.405Z,6.78
2023-10-25T15:33:32.064Z,6.70
2023-10-25T15:36:00.079Z,8.02
2023-10-25T15:38:28.188Z,8.43
2023-10-25T15:41:14.369Z,7.32
2023-10-25T15:43:42.292Z,9.15
2023-10-25T15:46:09.988Z,7.68
2023-10-25T15:48:45.368Z,10.70
2023-10-25T15:51:16.622Z,7.55
2023-10-25T15:53:45.216Z,8.27
2023-10-25T15:56:16.951Z,9.45
2023-10-25T15:58:45.496Z,8.32
2023-10-25T16:01:20.171Z,8.90
2023-10-25T16:03:56.102Z,11.68
2023-10-25T16:06:23.788Z,8.55
2023-10-25T16:08:51.786Z,10.00
2023-10-25T16:11:20.489Z,13.57
2023-10-25T16:13:49.648Z,13.00
2023-10-25T16:16:17.453Z,10.90
2023-10-25T16:18:45.392Z,9.63
2023-10-25T16:21:13.781Z,8.77
2023-10-25T16:23:46.584Z,8.68
2023-10-25T16:26:14.719Z,10.73
2023-10-25T16:28:43.502Z,9.98
2023-10-25T16:31:12.293Z,10.45
2023-10-25T16:33:41.884Z,9.13
2023-10-25T16:36:10.650Z,10.27
2023-10-25T16:38:38.480Z,12.68
2023-10-25T16:41:07.776Z,10.48
2023-10-25T16:43:36.127Z,15.90
2023-10-25T16:46:12.188Z,27.58
2023-10-25T16:48:42.610Z,20.15
2023-10-25T16:51:13.724Z,15.63
2023-10-25T16:53:44.501Z,12.07
2023-10-25T16:56:13.118Z,9.50
2023-10-25T16:58:41.025Z,9.38
2023-10-25T17:01:09.538Z,10.93
2023-10-25T17:03:37.827Z,10.07
2023-10-25T17:08:28.818Z,9.98
2023-10-25T17:10:57.416Z,7.97
2023-10-25T17:13:30.788Z,7.55
2023-10-25T17:16:02.847Z,9.85
2023-10-25T17:18:33.103Z,14.32
2023-10-25T17:21:02.033Z,10.60
2023-10-25T17:23:29.730Z,8.80
2023-10-25T17:25:57.717Z,9.98
2023-10-25T17:28:26.014Z,9.43
2023-10-25T17:30:54.085Z,9.10
2023-10-25T17:33:22.052Z,8.35
2023-10-25T17:35:50.055Z,11.93
2023-10-25T17:38:19.165Z,7.88
2023-10-25T17:40:50.800Z,10.60
2023-10-25T17:43:18.983Z,11.88
2023-10-25T17:46:09.775Z,16.40
2023-10-25T17:48:38.825Z,12.32
2023-10-25T17:51:07.996Z,13.80
2023-10-25T17:53:36.246Z,15.57
2023-10-25T17:56:04.333Z,15.15
2023-10-25T17:58:32.420Z,16.83
2023-10-25T18:01:00.637Z,22.92
2023-10-25T18:03:28.991Z,17.08
2023-10-25T18:06:03.450Z,16.35
2023-10-25T18:11:00.229Z,21.88
2023-10-25T18:13:27.849Z,21.95
2023-10-25T18:15:55.850Z,17.42
2023-10-25T18:18:23.564Z,17.75
2023-10-25T18:20:53.920Z,16.85
2023-10-25T18:23:22.853Z,16.77
2023-10-25T18:25:50.849Z,16.77
2023-10-25T18:28:18.493Z,15.52
2023-10-25T18:31:57.441Z,17.00
2023-10-25T18:33:38.615Z,15.88
2023-10-25T18:36:10.130Z,21.95
2023-10-25T18:38:39.395Z,17.75
2023-10-25T18:41:07.950Z,22.17
2023-10-25T18:43:35.555Z,19.70
2023-10-25T18:46:06.072Z,16.63
2023-10-25T18:48:34.452Z,17.65
2023-10-25T18:51:14.174Z,16.13
2023-10-25T18:53:42.196Z,15.48
2023-10-25T18:56:10.151Z,17.27
2023-10-25T18:58:37.836Z,18.15
2023-10-25T19:01:31.816Z,19.73
2023-10-25T19:03:59.487Z,22.70
2023-10-25T19:06:34.822Z,20.20
2023-10-25T19:09:04.826Z,22.55
2023-10-25T19:11:33.163Z,19.67
2023-10-25T19:14:00.965Z,19.30
2023-10-25T19:16:28.893Z,23.65
2023-10-25T19:18:57.909Z,20.05
2023-10-25T19:21:30.822Z,20.80
2023-10-25T19:24:01.433Z,20.70
2023-10-25T19:26:47.763Z,21.13
2023-10-25T19:29:18.175Z,21.02
2023-10-25T19:31:46.361Z,22.95
2023-10-25T19:34:14.415Z,19.92
2023-10-25T19:36:45.010Z,22.00
2023-10-25T19:39:13.116Z,25.58
2023-10-25T19:41:41.066Z,31.02
2023-10-25T19:44:09.404Z,30.20
2023-10-25T19:46:37.580Z,29.02
2023-10-25T19:49:08.134Z,27.10
2023-10-25T19:51:36.153Z,29.40
2023-10-25T19:54:03.949Z,30.60
2023-10-25T19:56:32.712Z,20.70
2023-10-25T19:59:00.348Z,21.83
2023-10-25T20:01:28.201Z,22.77
2023-10-25T20:03:55.992Z,19.60
2023-10-25T20:06:23.949Z,24.00
2023-10-25T20:08:52.238Z,22.92
2023-10-25T20:11:20.243Z,20.20
2023-10-25T20:13:48.087Z,19.20
2023-10-25T20:16:16.044Z,20.77
2023-10-25T20:18:45.335Z,20.98
2023-10-25T20:21:13.396Z,21.08
2023-10-25T20:23:42.004Z,20.65
2023-10-25T20:26:21.604Z,22.90
2023-10-25T20:28:54.174Z,21.30
2023-10-25T20:31:22.282Z,21.50
2023-10-25T20:33:53.566Z,22.92
2023-10-25T20:36:21.652Z,26.63
2023-10-25T20:38:49.634Z,23.05
2023-10-25T20:41:17.868Z,26.92
2023-10-25T20:43:45.871Z,25.35
2023-10-25T20:48:33.551Z,25.38
2023-10-25T20:51:03.726Z,22.60
2023-10-25T20:53:32.042Z,24.42
2023-10-25T20:56:01.016Z,23.20
2023-10-25T20:58:29.083Z,25.65
2023-10-25T21:00:57.066Z,26.17
2023-10-25T21:03:24.802Z,21.52
2023-10-25T21:05:58.842Z,24.67
2023-10-25T21:08:26.459Z,28.15
2023-10-25T21:10:54.479Z,29.75
2023-10-25T21:13:22.042Z,31.63
2023-10-25T21:15:51.486Z,29.90
2023-10-25T21:18:19.388Z,31.70
2023-10-25T21:20:47.895Z,33.05
2023-10-25T21:23:15.773Z,35.08
2023-10-25T21:25:44.236Z,31.98
2023-10-25T21:28:12.162Z,33.50
2023-10-25T21:30:40.588Z,35.42
2023-10-25T21:33:09.247Z,33.22
2023-10-25T21:35:37.468Z,31.05
2023-10-25T21:38:05.123Z,34.15
2023-10-25T21:40:32.959Z,31.63
2023-10-25T21:43:00.602Z,33.63
2023-10-25T21:45:28.634Z,27.90
2023-10-25T21:47:57.210Z,34.45
2023-10-25T21:50:26.932Z,38.22
2023-10-25T21:52:54.500Z,29.80
2023-10-25T21:55:22.488Z,35.15
2023-10-25T21:59:47.359Z,35.70
2023-10-25T22:00:37.916Z,35.85
2023-10-25T22:03:05.857Z,37.13
2023-10-25T22:05:33.909Z,30.60
2023-10-25T22:08:01.515Z,33.50
2023-10-25T22:10:29.437Z,35.35
2023-10-25T22:12:57.055Z,32.50
2023-10-25T22:15:25.022Z,32.03
2023-10-25T22:17:52.667Z,32.67
2023-10-25T22:20:20.663Z,33.08
2023-10-25T22:22:48.245Z,34.42
2023-10-25T22:25:16.179Z,35.83
2023-10-25T22:27:43.758Z,30.35
2023-10-25T22:30:11.989Z,31.10
2023-10-25T22:32:39.950Z,30.90
2023-10-25T22:35:08.230Z,29.30
2023-10-25T22:37:35.792Z,30.60
2023-10-25T22:40:06.661Z,32.47
2023-10-25T22:42:34.246Z,38.40
2023-10-25T22:45:02.099Z,40.25
2023-10-25T22:47:29.740Z,38.88
2023-10-25T22:49:57.630Z,38.03
2023-10-25T22:52:25.252Z,28.35
2023-10-25T22:54:53.057Z,29.00
2023-10-25T22:57:20.779Z,25.33
2023-10-25T22:59:48.731Z,27.25
2023-10-25T23:02:16.436Z,23.40
2023-10-25T23:04:44.626Z,24.75
2023-10-25T23:07:12.348Z,28.15
2023-10-25T23:09:40.208Z,25.58
2023-10-25T23:12:08.041Z,28.83
2023-10-25T23:14:35.912Z,32.72
2023-10-25T23:17:03.525Z,26.70
2023-10-25T23:19:31.426Z,28.77
2023-10-25T23:21:59.091Z,31.75
2023-10-25T23:24:27.026Z,29.58
2023-10-25T23:26:59.290Z,32.10
2023-10-25T23:29:28.380Z,29.98
2023-10-25T23:31:55.934Z,29.92
2023-10-25T23:34:24.165Z,31.13
2023-10-25T23:36:51.882Z,34.83
2023-10-25T23:39:19.810Z,31.77
2023-10-25T23:41:47.651Z,30.42
2023-10-25T23:44:15.599Z,28.27
2023-10-25T23:46:43.159Z,34.83
2023-10-25T23:49:11.009Z,37.75
2023-10-25T23:51:38.712Z,36.78
2023-10-25T23:54:43.126Z,41.83
2023-10-25T23:56:54.165Z,45.47
2023-10-25T23:59:22.021Z,44.22
